Delta Pioneer — SYIO — position and weather

sailwx.info

Track history (hours):
 
Tides and Currents Weather Stations Pressure Air Temp Water Temp Dewpoint Dewpoint Depression Visibility Wind Speed Wind Dir Waves Ship Positions

Delta Pioneer

Last reported at 2016-Sep-26 13:33 UTC. Time now 2016-Sep-27 07:06 UTC.
Position N 52°08' E 003°37'.

Length 249 m; draft 8 m.

Type: Tanker. MMSI: 240244000.

Date/timePositionNaut miles runAvg speedWind from/ knotsBaromVisibWave heightAir tempDewpointWater temp
2016-Sep-26 13:33N 52°08' E 003°37'1 0.6
2016-Sep-26 11:25N 52°08' E 003°39'0 0.0
2016-Sep-26 02:19N 52°08' E 003°39'0 0.0
2016-Sep-25 17:25N 52°08' E 003°39'0 0.0
2016-Sep-25 16:31N 52°08' E 003°39'0 0.0
2016-Sep-25 12:19N 52°08' E 003°39'0 0.0
2016-Sep-25 11:31N 52°08' E 003°39'0 0.0
2016-Sep-25 10:25N 52°08' E 003°39'0 0.1
2016-Sep-25 09:16N 52°08' E 003°39'0 0.0
2016-Sep-25 07:33N 52°08' E 003°39'0 0.0
2016-Sep-25 04:33N 52°08' E 003°38'0 0.0
2016-Sep-25 00:33N 52°08' E 003°38'0 0.0
2016-Sep-24 22:33N 52°08' E 003°39'0 0.0
2016-Sep-24 21:33N 52°08' E 003°39'0 0.0
2016-Sep-24 19:33N 52°08' E 003°39'0 0.0
2016-Sep-24 18:16N 52°08' E 003°39'0 0.0
2016-Sep-24 17:33N 52°08' E 003°39'0 0.1
2016-Sep-24 16:33N 52°08' E 003°38'0 0.1
2016-Sep-24 14:33N 52°08' E 003°38'0 0.1
2016-Sep-24 12:16N 52°08' E 003°39'0 0.0
2016-Sep-24 10:28N 52°08' E 003°39'0 0.0
2016-Sep-24 09:22N 52°08' E 003°39'0 0.0
2016-Sep-24 03:33N 52°08' E 003°39'0 0.1
2016-Sep-24 02:33N 52°08' E 003°38'0 0.1
2016-Sep-24 01:33N 52°08' E 003°38'0 0.0
2016-Sep-24 00:33N 52°08' E 003°38'0 0.0
2016-Sep-23 16:22N 52°08' E 003°39'0 0.1
2016-Sep-23 15:16N 52°08' E 003°39'0 0.0
2016-Sep-23 13:19N 52°08' E 003°38'0 0.1
2016-Sep-23 09:33N 52°08' E 003°39'0 0.0
2016-Sep-23 04:15N 52°08' E 003°39'0 0.0
2016-Sep-23 03:28N 52°08' E 003°39'0 0.1
2016-Sep-23 02:03N 52°08' E 003°39'0 0.0
2016-Sep-23 01:25N 52°08' E 003°39'0 0.0
2016-Sep-22 23:33N 52°08' E 003°39'0 0.0
2016-Sep-22 12:31N 52°08' E 003°38'0 0.0
2016-Sep-22 04:16N 52°08' E 003°39'0 0.0
2016-Sep-22 03:33N 52°08' E 003°39'0 0.1
2016-Sep-22 00:33N 52°08' E 003°38'0 0.0
2016-Sep-21 23:28N 52°08' E 003°38'0 0.0
2016-Sep-21 22:33N 52°08' E 003°38'0 0.0
2016-Sep-21 09:30N 52°08' E 003°38'0 0.2
2016-Sep-21 08:27N 52°08' E 003°38'0 0.0
2016-Sep-21 02:27N 52°08' E 003°38'0 0.0
2016-Sep-20 17:12N 52°08' E 003°39'0 0.1
2016-Sep-20 14:30N 52°08' E 003°38'0 0.0
2016-Sep-20 13:33N 52°08' E 003°38'0 0.0
2016-Sep-20 10:31N 52°08' E 003°38'0 0.1
2016-Sep-20 07:24N 52°08' E 003°39'0 0.0
2016-Sep-19 23:25N 52°08' E 003°38'0 0.0
2016-Sep-19 16:13N 52°08' E 003°39'0 0.1
2016-Sep-19 12:33N 52°08' E 003°38'0 0.0
2016-Sep-19 11:33N 52°08' E 003°38'0 0.0
2016-Sep-19 09:33N 52°08' E 003°38'0 0.0
2016-Sep-19 07:21N 52°08' E 003°38'0 0.0
2016-Sep-19 00:33N 52°08' E 003°38'0 0.0
2016-Sep-18 19:28N 52°08' E 003°38'18 4.6
2016-Sep-18 15:33N 51°59' E 004°04'6 6.4
2016-Sep-18 14:34N 51°55' E 004°12'0 0.1
2016-Sep-18 10:31N 51°55' E 004°12'0 0.0
2016-Sep-18 09:31N 51°55' E 004°12'0 0.0
2016-Sep-18 02:32N 51°55' E 004°12'0 0.0
2016-Sep-18 01:31N 51°55' E 004°12'0 0.0
2016-Sep-18 00:31N 51°55' E 004°12'0 0.0
2016-Sep-17 22:31N 51°55' E 004°12'0 0.0
2016-Sep-17 21:29N 51°55' E 004°12'0 0.0
2016-Sep-17 20:31N 51°55' E 004°12'0 0.0
2016-Sep-17 19:16N 51°55' E 004°12'0 0.0
2016-Sep-17 13:32N 51°55' E 004°12'0 0.0
2016-Sep-17 12:32N 51°55' E 004°12'0 0.0
2016-Sep-17 10:31N 51°55' E 004°12'0 0.0
2016-Sep-17 09:32N 51°55' E 004°12'0 0.0
2016-Sep-17 08:32N 51°55' E 004°12'0 0.0
2016-Sep-17 07:31N 51°55' E 004°12'1 0.3
2016-Sep-17 05:34N 51°56' E 004°12'0 0.1
2016-Sep-17 04:33N 51°56' E 004°12'0 0.0
2016-Sep-17 00:28N 51°56' E 004°12'0 0.0
2016-Sep-16 17:31N 51°56' E 004°12'0 0.0
2016-Sep-16 15:28N 51°56' E 004°12'  
Track history (hours):
 
Tides and Currents Weather Stations Pressure Air Temp Water Temp Dewpoint Dewpoint Depression Visibility Wind Speed Wind Dir Waves Ship Positions

Delta Pioneer

Last reported at 2016-Sep-26 13:33 UTC. Time now 2016-Sep-27 07:06 UTC.
Position N 52°08' E 003°37'.

Length 249 m; draft 8 m.

Type: Tanker. MMSI: 240244000.

Date/timePositionNaut miles runAvg speedWind from/ knotsBaromVisibWave heightAir tempDewpointWater temp
2016-Sep-26 13:33N 52°08' E 003°37'1 0.6
2016-Sep-26 11:25N 52°08' E 003°39'0 0.0
2016-Sep-26 02:19N 52°08' E 003°39'0 0.0
2016-Sep-25 17:25N 52°08' E 003°39'0 0.0
2016-Sep-25 16:31N 52°08' E 003°39'0 0.0
2016-Sep-25 12:19N 52°08' E 003°39'0 0.0
2016-Sep-25 11:31N 52°08' E 003°39'0 0.0
2016-Sep-25 10:25N 52°08' E 003°39'0 0.1
2016-Sep-25 09:16N 52°08' E 003°39'0 0.0
2016-Sep-25 07:33N 52°08' E 003°39'0 0.0
2016-Sep-25 04:33N 52°08' E 003°38'0 0.0
2016-Sep-25 00:33N 52°08' E 003°38'0 0.0
2016-Sep-24 22:33N 52°08' E 003°39'0 0.0
2016-Sep-24 21:33N 52°08' E 003°39'0 0.0
2016-Sep-24 19:33N 52°08' E 003°39'0 0.0
2016-Sep-24 18:16N 52°08' E 003°39'0 0.0
2016-Sep-24 17:33N 52°08' E 003°39'0 0.1
2016-Sep-24 16:33N 52°08' E 003°38'0 0.1
2016-Sep-24 14:33N 52°08' E 003°38'0 0.1
2016-Sep-24 12:16N 52°08' E 003°39'0 0.0
2016-Sep-24 10:28N 52°08' E 003°39'0 0.0
2016-Sep-24 09:22N 52°08' E 003°39'0 0.0
2016-Sep-24 03:33N 52°08' E 003°39'0 0.1
2016-Sep-24 02:33N 52°08' E 003°38'0 0.1
2016-Sep-24 01:33N 52°08' E 003°38'0 0.0
2016-Sep-24 00:33N 52°08' E 003°38'0 0.0
2016-Sep-23 16:22N 52°08' E 003°39'0 0.1
2016-Sep-23 15:16N 52°08' E 003°39'0 0.0
2016-Sep-23 13:19N 52°08' E 003°38'0 0.1
2016-Sep-23 09:33N 52°08' E 003°39'0 0.0
2016-Sep-23 04:15N 52°08' E 003°39'0 0.0
2016-Sep-23 03:28N 52°08' E 003°39'0 0.1
2016-Sep-23 02:03N 52°08' E 003°39'0 0.0
2016-Sep-23 01:25N 52°08' E 003°39'0 0.0
2016-Sep-22 23:33N 52°08' E 003°39'0 0.0
2016-Sep-22 12:31N 52°08' E 003°38'0 0.0
2016-Sep-22 04:16N 52°08' E 003°39'0 0.0
2016-Sep-22 03:33N 52°08' E 003°39'0 0.1
2016-Sep-22 00:33N 52°08' E 003°38'0 0.0
2016-Sep-21 23:28N 52°08' E 003°38'0 0.0
2016-Sep-21 22:33N 52°08' E 003°38'0 0.0
2016-Sep-21 09:30N 52°08' E 003°38'0 0.2
2016-Sep-21 08:27N 52°08' E 003°38'0 0.0
2016-Sep-21 02:27N 52°08' E 003°38'0 0.0
2016-Sep-20 17:12N 52°08' E 003°39'0 0.1
2016-Sep-20 14:30N 52°08' E 003°38'0 0.0
2016-Sep-20 13:33N 52°08' E 003°38'0 0.0
2016-Sep-20 10:31N 52°08' E 003°38'0 0.1
2016-Sep-20 07:24N 52°08' E 003°39'0 0.0
2016-Sep-19 23:25N 52°08' E 003°38'0 0.0
2016-Sep-19 16:13N 52°08' E 003°39'0 0.1
2016-Sep-19 12:33N 52°08' E 003°38'0 0.0
2016-Sep-19 11:33N 52°08' E 003°38'0 0.0
2016-Sep-19 09:33N 52°08' E 003°38'0 0.0
2016-Sep-19 07:21N 52°08' E 003°38'0 0.0
2016-Sep-19 00:33N 52°08' E 003°38'0 0.0
2016-Sep-18 19:28N 52°08' E 003°38'18 4.6
2016-Sep-18 15:33N 51°59' E 004°04'6 6.4
2016-Sep-18 14:34N 51°55' E 004°12'0 0.1
2016-Sep-18 10:31N 51°55' E 004°12'0 0.0
2016-Sep-18 09:31N 51°55' E 004°12'0 0.0
2016-Sep-18 02:32N 51°55' E 004°12'0 0.0
2016-Sep-18 01:31N 51°55' E 004°12'0 0.0
2016-Sep-18 00:31N 51°55' E 004°12'0 0.0
2016-Sep-17 22:31N 51°55' E 004°12'0 0.0
2016-Sep-17 21:29N 51°55' E 004°12'0 0.0
2016-Sep-17 20:31N 51°55' E 004°12'0 0.0
2016-Sep-17 19:16N 51°55' E 004°12'0 0.0
2016-Sep-17 13:32N 51°55' E 004°12'0 0.0
2016-Sep-17 12:32N 51°55' E 004°12'0 0.0
2016-Sep-17 10:31N 51°55' E 004°12'0 0.0
2016-Sep-17 09:32N 51°55' E 004°12'0 0.0
2016-Sep-17 08:32N 51°55' E 004°12'0 0.0
2016-Sep-17 07:31N 51°55' E 004°12'1 0.3
2016-Sep-17 05:34N 51°56' E 004°12'0 0.1
2016-Sep-17 04:33N 51°56' E 004°12'0 0.0
2016-Sep-17 00:28N 51°56' E 004°12'0 0.0
2016-Sep-16 17:31N 51°56' E 004°12'0 0.0
2016-Sep-16 15:28N 51°56' E 004°12'  

Dump ship's entire track history